Terminal Aerodrome Forecast
Issued by NWS

Home | Current Version | Previous Version | Text Only | Print | Product List | Glossary On
Versions: 1 2 3 4 5 6 7 8 9 10 11 12 13 14 15 16 17 18 19 20
000
FTUS43 KAPX 011300 AAB
TAFPLN
TAF AMD
KPLN 011303Z 0113/0212 00000KT 1/4SM FG VV002
     FM011330 VRB03KT P6SM FEW090
     FM011700 04005KT P6SM FEW060
     FM020000 00000KT P6SM SKC
     FM020800 00000KT 5SM BR SCT090
     FM021000 00000KT 1SM BR FEW002=

USA.gov is the U.S. government's official web portal to all federal, state and local government web resources and services.